sensor_id;sensor_type;location;lat;lon;timestamp;temperature;humidity
68257;DHT22;55069;51.568;4.656;2023-02-28T00:00:45;0.75;82.29
68257;DHT22;55069;51.568;4.656;2023-02-28T00:03:11;0.77;82.16
68257;DHT22;55069;51.568;4.656;2023-02-28T00:05:36;0.76;82.52
68257;DHT22;55069;51.568;4.656;2023-02-28T00:08:02;0.65;82.91
68257;DHT22;55069;51.568;4.656;2023-02-28T00:10:29;0.56;83.05
68257;DHT22;55069;51.568;4.656;2023-02-28T00:12:59;0.58;83.09
68257;DHT22;55069;51.568;4.656;2023-02-28T00:15:25;0.58;83.31
68257;DHT22;55069;51.568;4.656;2023-02-28T00:17:51;0.49;84.03
68257;DHT22;55069;51.568;4.656;2023-02-28T00:20:17;0.42;83.98
68257;DHT22;55069;51.568;4.656;2023-02-28T00:22:45;0.38;84.57
68257;DHT22;55069;51.568;4.656;2023-02-28T00:25:13;0.40;84.42
68257;DHT22;55069;51.568;4.656;2023-02-28T00:27:40;0.38;84.44
68257;DHT22;55069;51.568;4.656;2023-02-28T00:30:09;0.38;84.55
68257;DHT22;55069;51.568;4.656;2023-02-28T00:32:36;0.29;84.79
68257;DHT22;55069;51.568;4.656;2023-02-28T00:35:02;0.19;85.32
68257;DHT22;55069;51.568;4.656;2023-02-28T00:37:27;0.15;85.69
68257;DHT22;55069;51.568;4.656;2023-02-28T00:39:53;0.11;85.72
68257;DHT22;55069;51.568;4.656;2023-02-28T00:42:18;0.18;85.68
68257;DHT22;55069;51.568;4.656;2023-02-28T00:44:46;0.13;85.73
68257;DHT22;55069;51.568;4.656;2023-02-28T00:47:12;0.18;85.69
68257;DHT22;55069;51.568;4.656;2023-02-28T00:49:37;0.14;85.90
68257;DHT22;55069;51.568;4.656;2023-02-28T00:52:03;0.14;85.80
68257;DHT22;55069;51.568;4.656;2023-02-28T00:54:29;0.27;85.42
68257;DHT22;55069;51.568;4.656;2023-02-28T00:56:55;0.28;85.30
68257;DHT22;55069;51.568;4.656;2023-02-28T00:59:20;0.35;85.21
68257;DHT22;55069;51.568;4.656;2023-02-28T01:01:46;0.38;85.15
68257;DHT22;55069;51.568;4.656;2023-02-28T01:04:13;0.48;84.83
68257;DHT22;55069;51.568;4.656;2023-02-28T01:06:39;0.52;84.55
68257;DHT22;55069;51.568;4.656;2023-02-28T01:09:05;0.61;84.53
68257;DHT22;55069;51.568;4.656;2023-02-28T01:11:32;0.63;84.28
68257;DHT22;55069;51.568;4.656;2023-02-28T01:13:58;0.72;84.16
68257;DHT22;55069;51.568;4.656;2023-02-28T01:16:23;0.83;83.92
68257;DHT22;55069;51.568;4.656;2023-02-28T01:18:49;0.96;83.61
68257;DHT22;55069;51.568;4.656;2023-02-28T01:21:17;0.97;83.45
68257;DHT22;55069;51.568;4.656;2023-02-28T01:23:44;0.97;83.49
68257;DHT22;55069;51.568;4.656;2023-02-28T01:26:21;1.03;83.46
68257;DHT22;55069;51.568;4.656;2023-02-28T01:28:48;1.13;83.16
68257;DHT22;55069;51.568;4.656;2023-02-28T01:31:13;1.16;82.80
68257;DHT22;55069;51.568;4.656;2023-02-28T01:33:39;1.17;82.67
68257;DHT22;55069;51.568;4.656;2023-02-28T01:36:09;1.16;82.90
68257;DHT22;55069;51.568;4.656;2023-02-28T01:38:35;1.20;82.90
68257;DHT22;55069;51.568;4.656;2023-02-28T01:41:00;1.21;82.87
68257;DHT22;55069;51.568;4.656;2023-02-28T01:43:30;1.19;83.01
68257;DHT22;55069;51.568;4.656;2023-02-28T01:45:57;1.19;83.02
68257;DHT22;55069;51.568;4.656;2023-02-28T01:48:32;1.21;83.24
68257;DHT22;55069;51.568;4.656;2023-02-28T01:51:01;1.24;83.00
68257;DHT22;55069;51.568;4.656;2023-02-28T01:53:36;1.24;83.17
68257;DHT22;55069;51.568;4.656;2023-02-28T01:56:04;1.23;83.18
68257;DHT22;55069;51.568;4.656;2023-02-28T01:58:31;1.21;83.43
68257;DHT22;55069;51.568;4.656;2023-02-28T02:00:57;1.24;83.58
68257;DHT22;55069;51.568;4.656;2023-02-28T02:03:23;1.24;83.65
68257;DHT22;55069;51.568;4.656;2023-02-28T02:05:48;1.23;83.67
68257;DHT22;55069;51.568;4.656;2023-02-28T02:08:23;1.30;83.48
68257;DHT22;55069;51.568;4.656;2023-02-28T02:10:52;1.26;82.89
68257;DHT22;55069;51.568;4.656;2023-02-28T02:22:12;1.30;82.48
68257;DHT22;55069;51.568;4.656;2023-02-28T02:36:00;1.50;82.64
68257;DHT22;55069;51.568;4.656;2023-02-28T02:38:41;1.48;82.76
68257;DHT22;55069;51.568;4.656;2023-02-28T02:41:18;1.56;82.76
68257;DHT22;55069;51.568;4.656;2023-02-28T02:43:49;1.55;82.91
68257;DHT22;55069;51.568;4.656;2023-02-28T02:48:45;1.59;82.71
68257;DHT22;55069;51.568;4.656;2023-02-28T02:51:17;1.66;82.61
68257;DHT22;55069;51.568;4.656;2023-02-28T02:53:49;1.69;82.48
68257;DHT22;55069;51.568;4.656;2023-02-28T02:56:18;1.66;82.91
68257;DHT22;55069;51.568;4.656;2023-02-28T02:58:47;1.65;82.83
68257;DHT22;55069;51.568;4.656;2023-02-28T03:01:18;1.72;82.57
68257;DHT22;55069;51.568;4.656;2023-02-28T03:03:55;1.68;82.91
68257;DHT22;55069;51.568;4.656;2023-02-28T03:06:24;1.70;82.98
68257;DHT22;55069;51.568;4.656;2023-02-28T03:08:49;1.68;83.15
68257;DHT22;55069;51.568;4.656;2023-02-28T03:11:15;1.63;83.43
68257;DHT22;55069;51.568;4.656;2023-02-28T03:19:33;1.76;83.30
68257;DHT22;55069;51.568;4.656;2023-02-28T03:22:25;1.73;83.50
68257;DHT22;55069;51.568;4.656;2023-02-28T03:25:08;1.73;83.61
68257;DHT22;55069;51.568;4.656;2023-02-28T03:30:32;1.75;83.58
68257;DHT22;55069;51.568;4.656;2023-02-28T03:35:39;1.72;83.82
68257;DHT22;55069;51.568;4.656;2023-02-28T03:38:14;1.80;83.83
68257;DHT22;55069;51.568;4.656;2023-02-28T03:40:48;1.75;83.69
68257;DHT22;55069;51.568;4.656;2023-02-28T03:43:22;1.83;83.70
68257;DHT22;55069;51.568;4.656;2023-02-28T03:45:50;1.82;83.60
68257;DHT22;55069;51.568;4.656;2023-02-28T03:48:28;1.82;83.53
68257;DHT22;55069;51.568;4.656;2023-02-28T03:50:57;1.80;83.71
68257;DHT22;55069;51.568;4.656;2023-02-28T03:53:36;1.82;83.72
68257;DHT22;55069;51.568;4.656;2023-02-28T03:56:16;1.86;83.36
68257;DHT22;55069;51.568;4.656;2023-02-28T03:59:34;1.82;83.40
68257;DHT22;55069;51.568;4.656;2023-02-28T04:01:39;1.85;83.38
68257;DHT22;55069;51.568;4.656;2023-02-28T04:04:07;1.87;83.26
68257;DHT22;55069;51.568;4.656;2023-02-28T04:06:34;1.99;83.10
68257;DHT22;55069;51.568;4.656;2023-02-28T04:09:00;1.95;83.03
68257;DHT22;55069;51.568;4.656;2023-02-28T04:11:40;1.96;82.82
68257;DHT22;55069;51.568;4.656;2023-02-28T04:14:08;2.02;82.67
68257;DHT22;55069;51.568;4.656;2023-02-28T04:16:35;2.02;82.17
68257;DHT22;55069;51.568;4.656;2023-02-28T04:19:05;2.07;81.70
68257;DHT22;55069;51.568;4.656;2023-02-28T04:21:36;2.00;81.71
68257;DHT22;55069;51.568;4.656;2023-02-28T04:24:04;1.97;81.56
68257;DHT22;55069;51.568;4.656;2023-02-28T04:26:31;1.92;81.97
68257;DHT22;55069;51.568;4.656;2023-02-28T04:28:59;1.95;82.09
68257;DHT22;55069;51.568;4.656;2023-02-28T04:31:24;1.93;82.08
68257;DHT22;55069;51.568;4.656;2023-02-28T04:33:50;1.93;82.24
68257;DHT22;55069;51.568;4.656;2023-02-28T04:36:16;1.92;82.47
68257;DHT22;55069;51.568;4.656;2023-02-28T04:38:45;1.97;82.64
68257;DHT22;55069;51.568;4.656;2023-02-28T04:41:12;1.96;82.73
68257;DHT22;55069;51.568;4.656;2023-02-28T04:43:38;1.93;82.72
68257;DHT22;55069;51.568;4.656;2023-02-28T04:46:04;2.02;82.53
68257;DHT22;55069;51.568;4.656;2023-02-28T04:48:33;2.02;82.49
68257;DHT22;55069;51.568;4.656;2023-02-28T04:51:01;2.09;82.41
68257;DHT22;55069;51.568;4.656;2023-02-28T04:53:28;1.97;82.14
68257;DHT22;55069;51.568;4.656;2023-02-28T04:55:54;2.00;82.30
68257;DHT22;55069;51.568;4.656;2023-02-28T04:58:20;2.05;82.11
68257;DHT22;55069;51.568;4.656;2023-02-28T05:00:51;2.14;81.65
68257;DHT22;55069;51.568;4.656;2023-02-28T05:03:17;2.16;81.52
68257;DHT22;55069;51.568;4.656;2023-02-28T05:05:43;2.07;81.81
68257;DHT22;55069;51.568;4.656;2023-02-28T05:08:08;2.05;81.82
68257;DHT22;55069;51.568;4.656;2023-02-28T05:10:35;2.06;81.96
68257;DHT22;55069;51.568;4.656;2023-02-28T05:13:01;1.97;82.11
68257;DHT22;55069;51.568;4.656;2023-02-28T05:15:26;1.95;81.91
68257;DHT22;55069;51.568;4.656;2023-02-28T05:17:52;1.96;81.78
68257;DHT22;55069;51.568;4.656;2023-02-28T05:20:18;2.00;81.52
68257;DHT22;55069;51.568;4.656;2023-02-28T05:22:43;2.00;81.65
68257;DHT22;55069;51.568;4.656;2023-02-28T05:25:13;2.03;81.87
68257;DHT22;55069;51.568;4.656;2023-02-28T05:27:41;2.03;81.50
68257;DHT22;55069;51.568;4.656;2023-02-28T05:30:07;2.05;81.29
68257;DHT22;55069;51.568;4.656;2023-02-28T05:32:36;2.07;81.15
68257;DHT22;55069;51.568;4.656;2023-02-28T05:35:03;2.07;80.72
68257;DHT22;55069;51.568;4.656;2023-02-28T05:37:28;2.07;81.08
68257;DHT22;55069;51.568;4.656;2023-02-28T05:39:54;2.16;81.06
68257;DHT22;55069;51.568;4.656;2023-02-28T05:42:19;2.14;80.30
68257;DHT22;55069;51.568;4.656;2023-02-28T05:44:45;2.16;80.00
68257;DHT22;55069;51.568;4.656;2023-02-28T05:47:10;2.20;79.68
68257;DHT22;55069;51.568;4.656;2023-02-28T05:49:37;2.17;79.62
68257;DHT22;55069;51.568;4.656;2023-02-28T05:52:03;2.07;80.13
68257;DHT22;55069;51.568;4.656;2023-02-28T05:54:29;2.07;80.31
68257;DHT22;55069;51.568;4.656;2023-02-28T05:56:54;2.11;79.89
68257;DHT22;55069;51.568;4.656;2023-02-28T05:59:20;2.11;79.46
68257;DHT22;55069;51.568;4.656;2023-02-28T06:01:45;2.17;79.20
68257;DHT22;55069;51.568;4.656;2023-02-28T06:04:15;2.17;79.04
68257;DHT22;55069;51.568;4.656;2023-02-28T06:06:47;2.10;79.44
68257;DHT22;55069;51.568;4.656;2023-02-28T06:09:13;2.13;79.45
68257;DHT22;55069;51.568;4.656;2023-02-28T06:11:39;2.13;79.37
68257;DHT22;55069;51.568;4.656;2023-02-28T06:14:05;2.06;79.07
68257;DHT22;55069;51.568;4.656;2023-02-28T06:16:32;2.06;79.72
68257;DHT22;55069;51.568;4.656;2023-02-28T06:19:03;2.06;79.64
68257;DHT22;55069;51.568;4.656;2023-02-28T06:21:29;2.07;79.30
68257;DHT22;55069;51.568;4.656;2023-02-28T06:23:56;2.02;79.17
68257;DHT22;55069;51.568;4.656;2023-02-28T06:26:22;2.11;79.19
68257;DHT22;55069;51.568;4.656;2023-02-28T06:28:48;2.02;79.44
68257;DHT22;55069;51.568;4.656;2023-02-28T06:31:15;1.99;79.90
68257;DHT22;55069;51.568;4.656;2023-02-28T06:33:42;2.03;79.56
68257;DHT22;55069;51.568;4.656;2023-02-28T06:36:09;2.05;79.44
68257;DHT22;55069;51.568;4.656;2023-02-28T06:38:35;2.03;79.08
68257;DHT22;55069;51.568;4.656;2023-02-28T06:41:01;2.05;78.28
68257;DHT22;55069;51.568;4.656;2023-02-28T06:43:33;2.06;78.12
68257;DHT22;55069;51.568;4.656;2023-02-28T06:46:01;2.10;77.88
68257;DHT22;55069;51.568;4.656;2023-02-28T06:48:27;2.11;77.99
68257;DHT22;55069;51.568;4.656;2023-02-28T06:51:08;2.05;78.12
68257;DHT22;55069;51.568;4.656;2023-02-28T06:53:34;2.05;78.36
68257;DHT22;55069;51.568;4.656;2023-02-28T06:56:04;2.02;78.23
68257;DHT22;55069;51.568;4.656;2023-02-28T06:58:31;2.07;78.43
68257;DHT22;55069;51.568;4.656;2023-02-28T07:00:56;2.14;77.81
68257;DHT22;55069;51.568;4.656;2023-02-28T07:03:22;2.20;77.38
68257;DHT22;55069;51.568;4.656;2023-02-28T07:05:48;2.23;77.33
68257;DHT22;55069;51.568;4.656;2023-02-28T07:08:14;2.18;77.22
68257;DHT22;55069;51.568;4.656;2023-02-28T07:10:40;2.21;77.22
68257;DHT22;55069;51.568;4.656;2023-02-28T07:13:06;2.26;77.09
68257;DHT22;55069;51.568;4.656;2023-02-28T07:15:33;2.26;76.77
68257;DHT22;55069;51.568;4.656;2023-02-28T07:17:59;2.30;76.66
68257;DHT22;55069;51.568;4.656;2023-02-28T07:20:24;2.30;76.64
68257;DHT22;55069;51.568;4.656;2023-02-28T07:22:50;2.20;76.99
68257;DHT22;55069;51.568;4.656;2023-02-28T07:25:25;2.20;76.75
68257;DHT22;55069;51.568;4.656;2023-02-28T07:27:52;2.27;76.59
68257;DHT22;55069;51.568;4.656;2023-02-28T07:30:17;2.33;76.70
68257;DHT22;55069;51.568;4.656;2023-02-28T07:32:43;2.31;76.57
68257;DHT22;55069;51.568;4.656;2023-02-28T07:35:09;2.27;76.99
68257;DHT22;55069;51.568;4.656;2023-02-28T07:37:34;2.31;78.13
68257;DHT22;55069;51.568;4.656;2023-02-28T07:40:04;2.42;77.75
68257;DHT22;55069;51.568;4.656;2023-02-28T07:42:36;2.47;76.99
68257;DHT22;55069;51.568;4.656;2023-02-28T07:45:04;2.42;76.99
68257;DHT22;55069;51.568;4.656;2023-02-28T07:47:30;2.45;77.01
68257;DHT22;55069;51.568;4.656;2023-02-28T07:49:56;2.52;77.21
68257;DHT22;55069;51.568;4.656;2023-02-28T07:52:22;2.65;77.03
68257;DHT22;55069;51.568;4.656;2023-02-28T07:54:51;2.65;76.95
68257;DHT22;55069;51.568;4.656;2023-02-28T07:57:17;2.69;77.23
68257;DHT22;55069;51.568;4.656;2023-02-28T07:59:43;2.62;76.97
68257;DHT22;55069;51.568;4.656;2023-02-28T08:02:16;2.78;77.03
68257;DHT22;55069;51.568;4.656;2023-02-28T08:04:42;2.75;77.17
68257;DHT22;55069;51.568;4.656;2023-02-28T08:07:08;2.79;76.86
68257;DHT22;55069;51.568;4.656;2023-02-28T08:09:34;2.78;77.03
68257;DHT22;55069;51.568;4.656;2023-02-28T08:12:00;2.72;77.14
68257;DHT22;55069;51.568;4.656;2023-02-28T08:14:25;2.78;76.57
68257;DHT22;55069;51.568;4.656;2023-02-28T08:16:51;2.82;76.13
68257;DHT22;55069;51.568;4.656;2023-02-28T08:19:16;2.81;76.08
68257;DHT22;55069;51.568;4.656;2023-02-28T08:21:42;2.89;75.24
68257;DHT22;55069;51.568;4.656;2023-02-28T08:24:07;2.89;75.66
68257;DHT22;55069;51.568;4.656;2023-02-28T08:26:33;2.92;76.34
68257;DHT22;55069;51.568;4.656;2023-02-28T08:28:59;2.96;76.68
68257;DHT22;55069;51.568;4.656;2023-02-28T08:31:24;3.03;75.65
68257;DHT22;55069;51.568;4.656;2023-02-28T08:33:50;3.09;72.08
68257;DHT22;55069;51.568;4.656;2023-02-28T08:36:17;3.14;68.81
68257;DHT22;55069;51.568;4.656;2023-02-28T08:38:43;3.22;68.75
68257;DHT22;55069;51.568;4.656;2023-02-28T08:41:11;3.31;68.48
68257;DHT22;55069;51.568;4.656;2023-02-28T08:43:38;3.50;67.91
68257;DHT22;55069;51.568;4.656;2023-02-28T08:46:06;3.65;65.95
68257;DHT22;55069;51.568;4.656;2023-02-28T08:48:34;3.81;65.56
68257;DHT22;55069;51.568;4.656;2023-02-28T08:51:01;3.82;64.31
68257;DHT22;55069;51.568;4.656;2023-02-28T08:53:27;3.74;64.00
68257;DHT22;55069;51.568;4.656;2023-02-28T08:56:00;3.77;63.16
68257;DHT22;55069;51.568;4.656;2023-02-28T08:58:26;3.74;62.26
68257;DHT22;55069;51.568;4.656;2023-02-28T09:00:52;3.81;62.44
68257;DHT22;55069;51.568;4.656;2023-02-28T09:03:18;3.82;62.06
68257;DHT22;55069;51.568;4.656;2023-02-28T09:05:57;3.79;62.20
68257;DHT22;55069;51.568;4.656;2023-02-28T09:08:25;3.88;59.14
68257;DHT22;55069;51.568;4.656;2023-02-28T09:10:51;3.93;59.91
68257;DHT22;55069;51.568;4.656;2023-02-28T09:13:18;3.93;61.52
68257;DHT22;55069;51.568;4.656;2023-02-28T09:15:43;3.92;60.93
68257;DHT22;55069;51.568;4.656;2023-02-28T09:18:09;3.95;61.30
68257;DHT22;55069;51.568;4.656;2023-02-28T09:20:39;4.10;60.75
68257;DHT22;55069;51.568;4.656;2023-02-28T09:23:06;4.14;60.74
68257;DHT22;55069;51.568;4.656;2023-02-28T09:25:32;4.26;60.72
68257;DHT22;55069;51.568;4.656;2023-02-28T09:27:58;4.30;60.36
68257;DHT22;55069;51.568;4.656;2023-02-28T09:30:23;4.37;59.75
68257;DHT22;55069;51.568;4.656;2023-02-28T09:32:49;4.47;59.07
68257;DHT22;55069;51.568;4.656;2023-02-28T09:35:23;4.67;57.82
68257;DHT22;55069;51.568;4.656;2023-02-28T09:37:50;4.77;57.86
68257;DHT22;55069;51.568;4.656;2023-02-28T09:40:18;4.88;55.28
68257;DHT22;55069;51.568;4.656;2023-02-28T09:42:47;5.04;54.93
68257;DHT22;55069;51.568;4.656;2023-02-28T09:45:36;5.04;54.52
68257;DHT22;55069;51.568;4.656;2023-02-28T09:48:13;5.26;53.62
68257;DHT22;55069;51.568;4.656;2023-02-28T09:50:48;5.46;53.57
68257;DHT22;55069;51.568;4.656;2023-02-28T09:53:21;5.43;51.69
68257;DHT22;55069;51.568;4.656;2023-02-28T09:56:15;5.40;51.85
68257;DHT22;55069;51.568;4.656;2023-02-28T09:59:00;5.27;51.50
68257;DHT22;55069;51.568;4.656;2023-02-28T10:01:37;5.25;51.98
68257;DHT22;55069;51.568;4.656;2023-02-28T10:06:49;5.34;51.00
68257;DHT22;55069;51.568;4.656;2023-02-28T10:09:22;5.44;51.35
68257;DHT22;55069;51.568;4.656;2023-02-28T10:11:52;5.44;49.35
68257;DHT22;55069;51.568;4.656;2023-02-28T10:14:23;5.34;50.25
68257;DHT22;55069;51.568;4.656;2023-02-28T10:16:56;5.36;51.70
68257;DHT22;55069;51.568;4.656;2023-02-28T10:19:42;5.42;51.13
68257;DHT22;55069;51.568;4.656;2023-02-28T10:22:44;5.58;51.30
68257;DHT22;55069;51.568;4.656;2023-02-28T10:25:04;5.71;50.53
68257;DHT22;55069;51.568;4.656;2023-02-28T10:27:31;5.78;51.20
68257;DHT22;55069;51.568;4.656;2023-02-28T10:30:02;5.75;50.59
68257;DHT22;55069;51.568;4.656;2023-02-28T10:32:31;5.91;51.66
68257;DHT22;55069;51.568;4.656;2023-02-28T10:35:06;6.16;49.96
68257;DHT22;55069;51.568;4.656;2023-02-28T10:37:43;6.43;48.88
68257;DHT22;55069;51.568;4.656;2023-02-28T10:45:23;6.87;46.94
68257;DHT22;55069;51.568;4.656;2023-02-28T10:47:58;6.92;48.33
68257;DHT22;55069;51.568;4.656;2023-02-28T10:55:42;6.53;48.34
68257;DHT22;55069;51.568;4.656;2023-02-28T10:58:22;6.50;48.61
68257;DHT22;55069;51.568;4.656;2023-02-28T11:00:48;6.43;48.18
68257;DHT22;55069;51.568;4.656;2023-02-28T11:05:50;6.46;48.01
68257;DHT22;55069;51.568;4.656;2023-02-28T11:08:17;6.53;48.70
68257;DHT22;55069;51.568;4.656;2023-02-28T11:10:53;6.44;47.42
68257;DHT22;55069;51.568;4.656;2023-02-28T11:13:21;6.43;47.54
68257;DHT22;55069;51.568;4.656;2023-02-28T11:16:00;6.19;47.55
68257;DHT22;55069;51.568;4.656;2023-02-28T11:18:30;6.02;45.72
68257;DHT22;55069;51.568;4.656;2023-02-28T11:21:00;6.08;46.35
68257;DHT22;55069;51.568;4.656;2023-02-28T11:23:29;6.12;48.04
68257;DHT22;55069;51.568;4.656;2023-02-28T11:25:59;6.26;47.21
68257;DHT22;55069;51.568;4.656;2023-02-28T11:31:22;6.41;45.09
68257;DHT22;55069;51.568;4.656;2023-02-28T11:33:55;6.50;46.09
68257;DHT22;55069;51.568;4.656;2023-02-28T11:36:29;6.47;46.33
68257;DHT22;55069;51.568;4.656;2023-02-28T11:39:10;6.37;45.11
68257;DHT22;55069;51.568;4.656;2023-02-28T11:41:45;6.53;46.70
68257;DHT22;55069;51.568;4.656;2023-02-28T11:47:01;6.58;45.80
68257;DHT22;55069;51.568;4.656;2023-02-28T11:52:48;6.70;45.71
68257;DHT22;55069;51.568;4.656;2023-02-28T11:57:52;6.81;45.40
68257;DHT22;55069;51.568;4.656;2023-02-28T12:11:56;6.67;44.84
68257;DHT22;55069;51.568;4.656;2023-02-28T12:17:48;6.61;44.76
68257;DHT22;55069;51.568;4.656;2023-02-28T12:25:49;6.47;45.12
68257;DHT22;55069;51.568;4.656;2023-02-28T12:28:21;6.50;45.41
68257;DHT22;55069;51.568;4.656;2023-02-28T12:31:06;6.73;44.14
68257;DHT22;55069;51.568;4.656;2023-02-28T12:33:38;6.43;44.24
68257;DHT22;55069;51.568;4.656;2023-02-28T12:36:11;6.56;45.30
68257;DHT22;55069;51.568;4.656;2023-02-28T12:39:08;6.70;44.12
68257;DHT22;55069;51.568;4.656;2023-02-28T12:41:41;6.67;43.77
68257;DHT22;55069;51.568;4.656;2023-02-28T12:44:32;6.64;44.07
68257;DHT22;55069;51.568;4.656;2023-02-28T12:47:02;6.77;44.35
68257;DHT22;55069;51.568;4.656;2023-02-28T12:49:41;7.01;42.96
68257;DHT22;55069;51.568;4.656;2023-02-28T12:52:10;7.14;43.26
68257;DHT22;55069;51.568;4.656;2023-02-28T12:57:34;7.22;43.04
68257;DHT22;55069;51.568;4.656;2023-02-28T13:00:14;7.15;44.10
68257;DHT22;55069;51.568;4.656;2023-02-28T13:10:18;7.40;44.36
68257;DHT22;55069;51.568;4.656;2023-02-28T13:12:53;7.20;43.84
68257;DHT22;55069;51.568;4.656;2023-02-28T13:15:24;7.12;43.84
68257;DHT22;55069;51.568;4.656;2023-02-28T13:17:53;7.29;45.53
68257;DHT22;55069;51.568;4.656;2023-02-28T13:20:47;7.39;43.80
68257;DHT22;55069;51.568;4.656;2023-02-28T13:23:56;7.35;42.51
68257;DHT22;55069;51.568;4.656;2023-02-28T13:34:28;7.30;42.40
68257;DHT22;55069;51.568;4.656;2023-02-28T13:39:48;7.37;46.02
68257;DHT22;55069;51.568;4.656;2023-02-28T13:42:36;7.45;45.63
68257;DHT22;55069;51.568;4.656;2023-02-28T13:47:44;7.37;45.23
68257;DHT22;55069;51.568;4.656;2023-02-28T13:50:31;7.33;43.02
68257;DHT22;55069;51.568;4.656;2023-02-28T13:53:16;7.07;43.66
68257;DHT22;55069;51.568;4.656;2023-02-28T13:56:09;6.95;45.68
68257;DHT22;55069;51.568;4.656;2023-02-28T13:59:01;6.74;46.14
68257;DHT22;55069;51.568;4.656;2023-02-28T14:07:08;6.87;44.57
68257;DHT22;55069;51.568;4.656;2023-02-28T14:09:39;6.71;44.82
68257;DHT22;55069;51.568;4.656;2023-02-28T14:15:46;6.80;45.31
68257;DHT22;55069;51.568;4.656;2023-02-28T14:18:37;6.81;47.58
68257;DHT22;55069;51.568;4.656;2023-02-28T14:21:13;6.78;47.81
68257;DHT22;55069;51.568;4.656;2023-02-28T14:24:16;6.99;47.47
68257;DHT22;55069;51.568;4.656;2023-02-28T14:29:50;6.81;48.04
68257;DHT22;55069;51.568;4.656;2023-02-28T14:35:39;6.83;45.56
68257;DHT22;55069;51.568;4.656;2023-02-28T14:38:07;6.73;46.48
68257;DHT22;55069;51.568;4.656;2023-02-28T14:40:40;6.49;46.36
68257;DHT22;55069;51.568;4.656;2023-02-28T14:43:19;6.51;47.67
68257;DHT22;55069;51.568;4.656;2023-02-28T14:45:50;6.64;50.20
68257;DHT22;55069;51.568;4.656;2023-02-28T14:48:16;6.63;49.95
68257;DHT22;55069;51.568;4.656;2023-02-28T14:50:52;6.68;48.23
68257;DHT22;55069;51.568;4.656;2023-02-28T14:53:20;6.68;49.31
68257;DHT22;55069;51.568;4.656;2023-02-28T14:55:48;6.67;46.50
68257;DHT22;55069;51.568;4.656;2023-02-28T14:58:40;6.64;48.99
68257;DHT22;55069;51.568;4.656;2023-02-28T15:01:05;6.51;47.90
68257;DHT22;55069;51.568;4.656;2023-02-28T15:03:37;6.53;47.19
68257;DHT22;55069;51.568;4.656;2023-02-28T15:06:06;6.57;47.00
68257;DHT22;55069;51.568;4.656;2023-02-28T15:08:37;6.53;47.66
68257;DHT22;55069;51.568;4.656;2023-02-28T15:11:32;6.40;46.84
68257;DHT22;55069;51.568;4.656;2023-02-28T15:13:58;6.50;48.60
68257;DHT22;55069;51.568;4.656;2023-02-28T15:16:31;6.44;49.12
68257;DHT22;55069;51.568;4.656;2023-02-28T15:19:00;6.41;49.12
68257;DHT22;55069;51.568;4.656;2023-02-28T15:21:29;6.46;49.04
68257;DHT22;55069;51.568;4.656;2023-02-28T15:24:13;6.37;46.83
68257;DHT22;55069;51.568;4.656;2023-02-28T15:26:44;6.43;48.36
68257;DHT22;55069;51.568;4.656;2023-02-28T15:29:16;6.44;49.01
68257;DHT22;55069;51.568;4.656;2023-02-28T15:31:47;6.43;48.95
68257;DHT22;55069;51.568;4.656;2023-02-28T15:34:22;6.34;49.39
68257;DHT22;55069;51.568;4.656;2023-02-28T15:36:47;6.30;49.44
68257;DHT22;55069;51.568;4.656;2023-02-28T15:39:25;6.22;48.40
68257;DHT22;55069;51.568;4.656;2023-02-28T15:42:09;6.13;49.99
68257;DHT22;55069;51.568;4.656;2023-02-28T15:44:35;5.99;48.12
68257;DHT22;55069;51.568;4.656;2023-02-28T15:49:49;5.91;48.02
68257;DHT22;55069;51.568;4.656;2023-02-28T15:52:26;5.95;51.34
68257;DHT22;55069;51.568;4.656;2023-02-28T15:54:52;5.99;50.65
68257;DHT22;55069;51.568;4.656;2023-02-28T15:57:22;6.06;49.95
68257;DHT22;55069;51.568;4.656;2023-02-28T15:59:57;5.98;49.02
68257;DHT22;55069;51.568;4.656;2023-02-28T16:02:35;5.94;50.98
68257;DHT22;55069;51.568;4.656;2023-02-28T16:07:33;6.03;49.96
68257;DHT22;55069;51.568;4.656;2023-02-28T16:09:59;6.01;49.81
68257;DHT22;55069;51.568;4.656;2023-02-28T16:12:30;6.01;49.06
68257;DHT22;55069;51.568;4.656;2023-02-28T16:14:58;6.26;48.32
68257;DHT22;55069;51.568;4.656;2023-02-28T16:17:29;6.37;47.65
68257;DHT22;55069;51.568;4.656;2023-02-28T16:19:55;6.40;49.19
68257;DHT22;55069;51.568;4.656;2023-02-28T16:22:21;6.53;48.96
68257;DHT22;55069;51.568;4.656;2023-02-28T16:24:47;6.39;47.32
68257;DHT22;55069;51.568;4.656;2023-02-28T16:27:24;6.51;48.77
68257;DHT22;55069;51.568;4.656;2023-02-28T16:29:53;6.66;48.12
68257;DHT22;55069;51.568;4.656;2023-02-28T16:32:19;6.63;46.88
68257;DHT22;55069;51.568;4.656;2023-02-28T16:34:44;6.60;47.99
68257;DHT22;55069;51.568;4.656;2023-02-28T16:37:15;6.54;49.50
68257;DHT22;55069;51.568;4.656;2023-02-28T16:39:42;6.61;49.66
68257;DHT22;55069;51.568;4.656;2023-02-28T16:42:27;6.61;53.47
68257;DHT22;55069;51.568;4.656;2023-02-28T16:44:54;6.54;52.48
68257;DHT22;55069;51.568;4.656;2023-02-28T16:47:20;6.54;50.17
68257;DHT22;55069;51.568;4.656;2023-02-28T16:49:46;6.28;53.16
68257;DHT22;55069;51.568;4.656;2023-02-28T16:52:13;5.99;52.76
68257;DHT22;55069;51.568;4.656;2023-02-28T16:54:40;5.77;53.26
68257;DHT22;55069;51.568;4.656;2023-02-28T16:57:11;5.54;54.51
68257;DHT22;55069;51.568;4.656;2023-02-28T16:59:40;5.30;51.86
68257;DHT22;55069;51.568;4.656;2023-02-28T17:02:14;5.16;53.85
68257;DHT22;55069;51.568;4.656;2023-02-28T17:04:40;5.00;54.21
68257;DHT22;55069;51.568;4.656;2023-02-28T17:07:11;4.98;57.69
68257;DHT22;55069;51.568;4.656;2023-02-28T17:09:37;4.84;60.21
68257;DHT22;55069;51.568;4.656;2023-02-28T17:12:03;4.68;59.43
68257;DHT22;55069;51.568;4.656;2023-02-28T17:14:29;4.65;57.18
68257;DHT22;55069;51.568;4.656;2023-02-28T17:16:54;4.51;58.17
68257;DHT22;55069;51.568;4.656;2023-02-28T17:19:20;4.50;58.75
68257;DHT22;55069;51.568;4.656;2023-02-28T17:21:46;4.43;59.60
68257;DHT22;55069;51.568;4.656;2023-02-28T17:24:11;4.37;60.49
68257;DHT22;55069;51.568;4.656;2023-02-28T17:26:39;4.30;64.28
68257;DHT22;55069;51.568;4.656;2023-02-28T17:29:20;4.17;61.51
68257;DHT22;55069;51.568;4.656;2023-02-28T17:31:46;4.20;68.48
68257;DHT22;55069;51.568;4.656;2023-02-28T17:34:12;4.14;71.17
68257;DHT22;55069;51.568;4.656;2023-02-28T17:36:44;4.05;66.66
68257;DHT22;55069;51.568;4.656;2023-02-28T17:39:11;4.09;70.57
68257;DHT22;55069;51.568;4.656;2023-02-28T17:41:40;3.98;70.74
68257;DHT22;55069;51.568;4.656;2023-02-28T17:44:06;3.91;70.97
68257;DHT22;55069;51.568;4.656;2023-02-28T17:46:31;3.86;70.78
68257;DHT22;55069;51.568;4.656;2023-02-28T17:48:57;3.78;70.67
68257;DHT22;55069;51.568;4.656;2023-02-28T17:51:23;3.77;73.15
68257;DHT22;55069;51.568;4.656;2023-02-28T17:53:49;3.70;72.60
68257;DHT22;55069;51.568;4.656;2023-02-28T17:56:23;3.70;73.60
68257;DHT22;55069;51.568;4.656;2023-02-28T17:58:50;3.65;73.68
68257;DHT22;55069;51.568;4.656;2023-02-28T18:01:17;3.60;73.35
68257;DHT22;55069;51.568;4.656;2023-02-28T18:03:43;3.52;73.89
68257;DHT22;55069;51.568;4.656;2023-02-28T18:06:15;3.47;75.16
68257;DHT22;55069;51.568;4.656;2023-02-28T18:08:41;3.41;75.31